Cobourg, Canada
Current Conditions -  °F | °C
As of 11:00 PM on Sunday 23 Nov 2014 (Local Time) from CYPQ Reporting Station
Overcast Overcast  
Wind Chill: 42°   Ceiling: 16000
Heat Index: 45°   Visibility: 9mi
Dew Point: 39°   Wind: 5mph
Humidity: 81%   Direction: 110°ESE
Pressure: 29.68"   Gusts: NA
Location:  43.96°N, 78.17°W
Report Text: CYPQ 240400Z AUTO 11004KT 060V150 9SM SCT130 OVC160 07/04 A2968 RMK PRESFR SLP055
Loading
Personal Weather Stations






























Interactive Weather Map New forecast layout! Learn more

10-Day Weather Forecast

Advertisements
Track Severe Weather on mobile